createdAt,value
2019-05-30T00:01:47.565Z,10.9
2019-05-30T00:06:47.557Z,10.8
2019-05-30T00:11:47.594Z,10.8
2019-05-30T00:16:47.599Z,10.8
2019-05-30T00:21:47.564Z,10.8
2019-05-30T00:26:47.578Z,10.8
2019-05-30T00:31:47.611Z,10.8
2019-05-30T00:36:47.738Z,10.8
2019-05-30T00:41:47.628Z,10.8
2019-05-30T00:46:47.605Z,10.8
2019-05-30T00:51:47.605Z,10.8
2019-05-30T00:56:47.615Z,10.8
2019-05-30T01:01:47.583Z,10.7
2019-05-30T01:06:47.603Z,10.7
2019-05-30T01:11:47.619Z,10.7
2019-05-30T01:16:47.610Z,10.7
2019-05-30T01:21:47.623Z,10.7
2019-05-30T01:26:47.614Z,10.7
2019-05-30T01:31:47.603Z,10.7
2019-05-30T01:36:47.606Z,10.7
2019-05-30T01:41:47.610Z,10.7
2019-05-30T01:46:47.609Z,10.7
2019-05-30T01:51:47.611Z,10.7
2019-05-30T01:56:47.616Z,10.6
2019-05-30T02:01:47.616Z,10.6
2019-05-30T02:06:47.627Z,10.6
2019-05-30T02:11:47.629Z,10.6
2019-05-30T02:16:47.639Z,10.6
2019-05-30T02:21:47.626Z,10.6
2019-05-30T02:26:47.625Z,10.6
2019-05-30T02:31:47.643Z,10.6
2019-05-30T02:36:47.648Z,10.6
2019-05-30T02:41:47.644Z,10.6
2019-05-30T02:46:47.657Z,10.6
2019-05-30T02:51:47.652Z,10.6
2019-05-30T02:56:47.648Z,10.6
2019-05-30T03:02:00.574Z,10.6
2019-05-30T03:06:47.660Z,10.6
2019-05-30T03:11:47.614Z,10.6
2019-05-30T03:16:47.672Z,10.6
2019-05-30T03:21:47.659Z,10.6
2019-05-30T03:26:47.680Z,10.6
2019-05-30T03:31:47.691Z,10.6
2019-05-30T03:36:47.690Z,10.5
2019-05-30T03:41:47.777Z,10.5
2019-05-30T03:46:47.636Z,10.6
2019-05-30T03:51:47.838Z,10.6
2019-05-30T03:56:47.644Z,10.6
2019-05-30T04:01:47.646Z,10.6
2019-05-30T04:06:47.685Z,10.6
2019-05-30T04:11:47.694Z,10.6
2019-05-30T04:16:47.688Z,10.7
2019-05-30T04:21:47.695Z,10.7
2019-05-30T04:26:47.695Z,10.7
2019-05-30T04:31:47.695Z,10.8
2019-05-30T04:36:52.020Z,10.8
2019-05-30T04:41:47.714Z,10.9
2019-05-30T04:46:47.715Z,10.9
2019-05-30T04:51:47.715Z,11
2019-05-30T04:56:47.714Z,11
2019-05-30T05:01:47.722Z,11.1
2019-05-30T05:06:47.711Z,11.1
2019-05-30T05:11:47.715Z,11.2
2019-05-30T05:16:47.750Z,11.3
2019-05-30T05:21:47.682Z,11.3
2019-05-30T05:26:47.732Z,11.4
2019-05-30T05:31:47.739Z,11.5
2019-05-30T05:36:47.733Z,11.5
2019-05-30T05:41:47.757Z,11.7
2019-05-30T05:46:47.747Z,11.7
2019-05-30T05:51:47.750Z,11.8
2019-05-30T05:56:47.747Z,11.8
2019-05-30T06:01:47.772Z,12
2019-05-30T06:06:47.752Z,12.1
2019-05-30T06:11:49.102Z,12.2
2019-05-30T06:16:47.748Z,12.3
2019-05-30T06:21:53.812Z,12.4
2019-05-30T06:26:47.789Z,12.4
2019-05-30T06:31:47.766Z,12.5
2019-05-30T06:36:47.780Z,12.6
2019-05-30T06:41:47.771Z,12.7
2019-05-30T06:46:47.775Z,12.9
2019-05-30T06:51:47.770Z,13
2019-05-30T06:56:47.752Z,13
2019-05-30T07:01:47.772Z,13.1
2019-05-30T07:06:47.995Z,13.2
2019-05-30T07:11:47.790Z,13.3
2019-05-30T07:16:47.816Z,13.4
2019-05-30T07:21:47.762Z,13.4
2019-05-30T07:26:47.786Z,13.6
2019-05-30T07:31:47.815Z,13.7
2019-05-30T07:36:47.804Z,13.7
2019-05-30T07:42:02.977Z,13.8
2019-05-30T07:46:47.799Z,13.9
2019-05-30T07:51:47.818Z,14.1
2019-05-30T07:56:47.813Z,14.1
2019-05-30T08:01:47.813Z,14
2019-05-30T08:06:47.817Z,14.1
2019-05-30T08:11:47.812Z,14.3
2019-05-30T08:16:47.828Z,14.6
2019-05-30T08:21:47.797Z,14.8
2019-05-30T08:26:47.821Z,14.9
2019-05-30T08:31:47.816Z,15
2019-05-30T08:36:47.861Z,15
2019-05-30T08:41:47.838Z,15.2
2019-05-30T08:46:47.777Z,15.3
2019-05-30T08:51:47.839Z,15.7
2019-05-30T08:56:47.830Z,15.8
2019-05-30T09:01:52.601Z,16
2019-05-30T09:06:47.835Z,16.4
2019-05-30T09:11:47.846Z,16.8
2019-05-30T09:16:49.205Z,16.7
2019-05-30T09:21:47.845Z,17.2
2019-05-30T09:26:50.251Z,17
2019-05-30T09:31:48.669Z,17.1
2019-05-30T09:36:48.953Z,17.2
2019-05-30T09:41:49.728Z,17.1
2019-05-30T09:46:48.496Z,17
2019-05-30T09:51:48.930Z,16.8
2019-05-30T09:56:48.516Z,16.6
2019-05-30T10:01:48.088Z,16
2019-05-30T10:06:48.420Z,16.1
2019-05-30T10:11:47.882Z,16
2019-05-30T10:16:53.283Z,16.1
2019-05-30T10:21:48.941Z,16
2019-05-30T10:26:48.935Z,15.7
2019-05-30T10:31:48.297Z,15.7
2019-05-30T10:36:49.137Z,15.8
2019-05-30T10:41:48.993Z,16
2019-05-30T10:46:48.918Z,16.2
2019-05-30T10:51:47.902Z,16.2
2019-05-30T10:56:48.412Z,16.3
2019-05-30T11:01:48.410Z,16.4
2019-05-30T11:07:02.537Z,16.6
2019-05-30T11:11:48.583Z,17
2019-05-30T11:16:48.819Z,17.2
2019-05-30T11:21:47.926Z,17
2019-05-30T11:26:48.706Z,17.1
2019-05-30T11:31:48.741Z,16.9
2019-05-30T11:36:48.965Z,17.1
2019-05-30T11:41:49.066Z,17.3
2019-05-30T11:46:47.977Z,17.5
2019-05-30T11:51:47.872Z,17.6
2019-05-30T11:56:47.936Z,17.6
2019-05-30T12:01:47.931Z,17.5
2019-05-30T12:06:47.970Z,17.4
2019-05-30T12:11:47.941Z,17.1
2019-05-30T12:16:47.934Z,16.9
2019-05-30T12:21:47.969Z,16.7
2019-05-30T12:26:47.940Z,16.5
2019-05-30T12:31:47.993Z,16.4
2019-05-30T12:36:47.914Z,16.5
2019-05-30T12:41:47.960Z,16.7
2019-05-30T12:46:47.967Z,16.9
2019-05-30T12:51:47.967Z,16.9
2019-05-30T12:56:47.961Z,17
2019-05-30T13:01:48.947Z,17.1
2019-05-30T13:06:48.990Z,17.4
2019-05-30T13:11:49.006Z,17.6
2019-05-30T13:16:48.954Z,17.7
2019-05-30T13:21:48.973Z,18
2019-05-30T13:26:49.188Z,18.3
2019-05-30T13:31:48.983Z,18.6
2019-05-30T13:36:48.960Z,18.8
2019-05-30T13:41:48.972Z,19.2
2019-05-30T13:46:48.933Z,19
2019-05-30T13:51:48.979Z,18.9
2019-05-30T13:56:48.996Z,18.9
2019-05-30T14:01:48.982Z,18.7
2019-05-30T14:06:49.010Z,18.6
2019-05-30T14:11:48.986Z,18.6
2019-05-30T14:16:49.862Z,18.5
2019-05-30T14:21:49.087Z,18.5
2019-05-30T14:26:48.974Z,18.6
2019-05-30T14:31:49.001Z,18.8
2019-05-30T14:36:49.021Z,18.8
2019-05-30T14:41:49.006Z,19
2019-05-30T14:46:49.006Z,19.2
2019-05-30T14:51:49.006Z,19.2
2019-05-30T14:56:49.021Z,19
2019-05-30T15:01:49.017Z,19
2019-05-30T15:06:49.007Z,19
2019-05-30T15:11:49.003Z,19.2
2019-05-30T15:16:49.027Z,19.1
2019-05-30T15:21:49.023Z,19
2019-05-30T15:26:49.010Z,19.1
2019-05-30T15:31:49.015Z,19.2
2019-05-30T15:36:49.054Z,19.2
2019-05-30T15:41:49.025Z,19.3
2019-05-30T15:46:49.038Z,19.4
2019-05-30T15:51:49.087Z,19.1
2019-05-30T15:56:49.058Z,19.1
2019-05-30T16:01:49.040Z,19.2
2019-05-30T16:06:49.046Z,19
2019-05-30T16:11:49.090Z,18.6
2019-05-30T16:16:49.053Z,18.5
2019-05-30T16:21:49.072Z,18.5
2019-05-30T16:26:49.132Z,18.3
2019-05-30T16:31:49.058Z,18.3
2019-05-30T16:36:49.020Z,18.3
2019-05-30T16:41:49.128Z,18.3
2019-05-30T16:46:49.065Z,18.1
2019-05-30T16:51:49.070Z,17.9
2019-05-30T16:56:49.086Z,17.8
2019-05-30T17:01:57.606Z,17.8
2019-05-30T17:06:49.076Z,17.8
2019-05-30T17:11:49.084Z,17.8
2019-05-30T17:16:49.065Z,17.9
2019-05-30T17:21:49.099Z,17.9
2019-05-30T17:26:51.890Z,17.8
2019-05-30T17:31:49.104Z,17.9
2019-05-30T17:36:49.053Z,18
2019-05-30T17:41:49.113Z,18.9
2019-05-30T17:46:49.105Z,21
2019-05-30T17:51:49.944Z,21.6
2019-05-30T17:56:52.130Z,22
2019-05-30T18:01:49.110Z,21.5
2019-05-30T18:06:50.239Z,21.9
2019-05-30T18:11:52.468Z,20
2019-05-30T18:16:51.898Z,19.2
2019-05-30T18:21:50.256Z,18.6
2019-05-30T18:26:52.091Z,18
2019-05-30T18:31:49.155Z,17.6
2019-05-30T18:36:49.166Z,17.3
2019-05-30T18:41:49.165Z,17
2019-05-30T18:46:49.152Z,16.7
2019-05-30T18:51:49.163Z,16.4
2019-05-30T18:56:49.171Z,16.3
2019-05-30T19:01:59.295Z,16
2019-05-30T19:06:50.557Z,15.9
2019-05-30T19:11:53.517Z,15.7
2019-05-30T19:16:53.642Z,15.5
2019-05-30T19:21:53.297Z,15.4
2019-05-30T19:26:50.541Z,15.2
2019-05-30T19:31:50.597Z,15
2019-05-30T19:36:50.603Z,14.9
2019-05-30T19:41:56.610Z,14.8
2019-05-30T19:46:50.534Z,14.6
2019-05-30T19:51:50.594Z,14.4
2019-05-30T19:56:51.746Z,14.2
2019-05-30T20:01:50.585Z,14.1
2019-05-30T20:06:51.731Z,14
2019-05-30T20:12:02.442Z,13.9
2019-05-30T20:16:51.090Z,13.8
2019-05-30T20:21:50.566Z,13.8
2019-05-30T20:26:50.712Z,13.7
2019-05-30T20:31:50.565Z,13.6
2019-05-30T20:36:50.684Z,13.5
2019-05-30T20:41:53.780Z,13.4
2019-05-30T20:46:51.802Z,13.3
2019-05-30T20:51:50.549Z,13.2
2019-05-30T20:56:51.771Z,13.1
2019-05-30T21:01:50.613Z,13
2019-05-30T21:06:50.542Z,12.9
2019-05-30T21:11:50.591Z,12.8
2019-05-30T21:16:50.581Z,12.6
2019-05-30T21:21:50.584Z,12.5
2019-05-30T21:26:50.579Z,12.4
2019-05-30T21:31:50.594Z,12.3
2019-05-30T21:36:50.606Z,12.2
2019-05-30T21:41:50.591Z,12.1
2019-05-30T21:46:50.593Z,12
2019-05-30T21:51:50.606Z,11.9
2019-05-30T21:56:50.852Z,11.8
2019-05-30T22:01:56.533Z,11.7
2019-05-30T22:06:51.031Z,11.6
2019-05-30T22:11:51.742Z,11.5
2019-05-30T22:16:51.784Z,11.4
2019-05-30T22:21:50.640Z,11.4
2019-05-30T22:26:50.779Z,11.3
2019-05-30T22:31:51.053Z,11.2
2019-05-30T22:36:50.946Z,11.1
2019-05-30T22:41:50.620Z,11
2019-05-30T22:46:50.627Z,11
2019-05-30T22:51:51.082Z,11
2019-05-30T22:56:51.494Z,10.8
2019-05-30T23:01:51.927Z,10.8
2019-05-30T23:06:50.629Z,10.7
2019-05-30T23:11:51.646Z,10.6
2019-05-30T23:16:50.723Z,10.5
2019-05-30T23:21:51.610Z,10.4
2019-05-30T23:26:51.693Z,10.3
2019-05-30T23:31:51.916Z,10.3
2019-05-30T23:36:50.647Z,10.2
2019-05-30T23:41:50.990Z,10.1
2019-05-30T23:46:51.424Z,10.1
2019-05-30T23:51:51.840Z,10
2019-05-30T23:56:50.654Z,10
